Time;durP1;ratioP1;P1;durP2;ratioP2;P2;SDS_P1;SDS_P2;PMS_P1;PMS_P2;Temp;Humidity;BMP_temperature;BMP_pressure;BME280_temperature;BME280_humidity;BME280_pressure;Samples;Min_cycle;Max_cycle;Signal;HPM_P1;HPM_P2
2022/06/03 00:00:54;;;;;;;61.10;4.30;;;;;;;;;;5079367;28;20561;-82
2022/06/03 00:03:28;;;;;;;63.40;5.20;;;;;;;;;;5080710;28;20491;-82
2022/06/03 00:06:11;;;;;;;60.17;4.37;;;;;;;;;;5080874;28;20436;-82
2022/06/03 00:08:51;;;;;;;61.10;4.80;;;;;;;;;;5080937;28;20513;-82
2022/06/03 00:11:27;;;;;;;60.20;4.80;;;;;;;;;;5082454;28;20453;-82
2022/06/03 00:14:03;;;;;;;60.23;4.50;;;;;;;;;;5082537;28;20421;-82
2022/06/03 00:16:37;;;;;;;63.53;4.60;;;;;;;;;;5082494;28;20431;-82
2022/06/03 00:19:22;;;;;;;60.50;4.50;;;;;;;;;;5079220;28;20874;-82
2022/06/03 00:21:58;;;;;;;60.50;4.40;;;;;;;;;;5080002;28;20487;-82
2022/06/03 00:24:30;;;;;;;60.37;4.63;;;;;;;;;;5079917;28;20445;-82
2022/06/03 00:27:15;;;;;;;60.23;4.23;;;;;;;;;;5080264;28;20421;-82
2022/06/03 00:29:47;;;;;;;59.77;4.27;;;;;;;;;;5080743;28;20467;-82
2022/06/03 00:32:26;;;;;;;60.90;4.13;;;;;;;;;;5079938;28;20872;-82
2022/06/03 00:34:58;;;;;;;62.87;4.97;;;;;;;;;;5081196;28;20482;-82
2022/06/03 00:37:32;;;;;;;60.17;4.47;;;;;;;;;;5080184;28;20467;-82
2022/06/03 00:40:09;;;;;;;62.73;4.10;;;;;;;;;;5076332;28;20551;-82
2022/06/03 00:42:53;;;;;;;62.50;5.80;;;;;;;;;;5072856;28;20492;-82
2022/06/03 00:45:39;;;;;;;61.10;4.67;;;;;;;;;;5073618;28;20428;-82
2022/06/03 00:48:13;;;;;;;60.77;4.37;;;;;;;;;;5074592;28;20431;-82
2022/06/03 00:50:56;;;;;;;66.53;5.07;;;;;;;;;;5074556;28;20475;-82
2022/06/03 00:53:42;;;;;;;60.10;4.30;;;;;;;;;;5074264;28;20482;-82
2022/06/03 00:56:30;;;;;;;62.97;4.93;;;;;;;;;;5075355;28;20828;-81
2022/06/03 00:59:08;;;;;;;61.43;4.30;;;;;;;;;;5058659;28;20435;-81
2022/06/03 01:01:41;;;;;;;60.60;4.23;;;;;;;;;;5077648;28;20561;-82
2022/06/03 01:04:21;;;;;;;61.03;4.33;;;;;;;;;;5078879;28;20422;-82
2022/06/03 01:06:55;;;;;;;60.23;4.20;;;;;;;;;;5078774;28;20828;-81
2022/06/03 01:09:29;;;;;;;60.37;3.97;;;;;;;;;;5078006;28;20471;-81
2022/06/03 01:12:03;;;;;;;60.60;4.07;;;;;;;;;;5078019;28;20442;-81
2022/06/03 01:14:37;;;;;;;60.70;4.47;;;;;;;;;;5078438;28;21043;-81
2022/06/03 01:17:08;;;;;;;59.50;3.87;;;;;;;;;;5077977;28;20440;-82
2022/06/03 01:19:40;;;;;;;60.30;4.37;;;;;;;;;;5077854;28;20487;-81
2022/06/03 01:22:21;;;;;;;60.27;3.80;;;;;;;;;;5079020;28;20824;-82
2022/06/03 01:24:57;;;;;;;60.57;4.53;;;;;;;;;;5078966;28;20423;-81
2022/06/03 01:27:50;;;;;;;60.70;4.90;;;;;;;;;;5078631;28;20432;-81
2022/06/03 01:30:24;;;;;;;60.27;4.07;;;;;;;;;;5077829;28;20519;-81
2022/06/03 01:33:18;;;;;;;59.67;4.03;;;;;;;;;;5078357;28;20892;-81
2022/06/03 01:36:02;;;;;;;59.77;3.63;;;;;;;;;;5046174;28;20457;-81
2022/06/03 01:38:44;;;;;;;60.07;4.60;;;;;;;;;;5077300;28;20850;-82
2022/06/03 01:41:20;;;;;;;59.90;4.53;;;;;;;;;;5079333;28;20479;-81
2022/06/03 01:43:57;;;;;;;59.90;3.90;;;;;;;;;;5078534;28;20505;-81
2022/06/03 01:46:32;;;;;;;59.97;3.90;;;;;;;;;;5077529;28;20415;-82
2022/06/03 01:49:18;;;;;;;59.80;4.23;;;;;;;;;;5077911;28;20455;-82
2022/06/03 01:52:18;;;;;;;60.27;4.00;;;;;;;;;;5079085;28;20443;-81
2022/06/03 01:55:03;;;;;;;60.57;4.47;;;;;;;;;;4977342;28;20495;-82
2022/06/03 01:57:44;;;;;;;60.07;4.87;;;;;;;;;;4977175;28;20451;-81
2022/06/03 02:00:20;;;;;;;60.37;4.50;;;;;;;;;;5043837;28;21029;-82
2022/06/03 02:02:55;;;;;;;60.30;4.47;;;;;;;;;;5078129;28;20548;-82
2022/06/03 02:05:33;;;;;;;61.17;4.93;;;;;;;;;;5077547;28;20833;-82
2022/06/03 02:08:12;;;;;;;62.70;5.00;;;;;;;;;;5077029;28;20431;-82
2022/06/03 02:10:58;;;;;;;61.40;4.50;;;;;;;;;;5078119;28;20458;-82
2022/06/03 02:13:43;;;;;;;60.50;4.33;;;;;;;;;;5078733;28;20435;-82
2022/06/03 02:16:29;;;;;;;60.70;4.47;;;;;;;;;;5078380;28;20970;-82
2022/06/03 02:19:05;;;;;;;61.87;4.90;;;;;;;;;;5076386;28;20436;-82
2022/06/03 02:21:57;;;;;;;60.00;3.97;;;;;;;;;;5077435;28;21076;-82
2022/06/03 02:24:35;;;;;;;60.20;4.23;;;;;;;;;;5077734;28;20455;-82
2022/06/03 02:27:20;;;;;;;60.00;4.13;;;;;;;;;;5078119;28;20510;-82
2022/06/03 02:33:02;;;;;;;60.60;4.60;;;;;;;;;;5097790;28;20425;-82
2022/06/03 02:35:41;;;;;;;60.17;4.30;;;;;;;;;;5098034;28;20480;-82
2022/06/03 02:38:27;;;;;;;60.47;4.40;;;;;;;;;;5098358;28;20474;-82
2022/06/03 02:41:06;;;;;;;60.10;4.13;;;;;;;;;;5098577;28;20884;-82
2022/06/03 02:43:48;;;;;;;60.40;4.30;;;;;;;;;;5099119;28;20455;-82
2022/06/03 02:46:35;;;;;;;60.07;4.70;;;;;;;;;;5099826;28;20432;-82
2022/06/03 02:49:21;;;;;;;60.67;4.67;;;;;;;;;;5098429;28;20480;-82
2022/06/03 02:52:10;;;;;;;61.87;4.93;;;;;;;;;;5099555;28;20519;-82
2022/06/03 02:54:52;;;;;;;61.30;4.23;;;;;;;;;;5098154;28;20446;-82
2022/06/03 02:57:40;;;;;;;60.93;4.43;;;;;;;;;;5076422;28;20449;-82
2022/06/03 03:00:16;;;;;;;60.07;3.83;;;;;;;;;;5082197;28;20462;-82
2022/06/03 03:02:58;;;;;;;62.67;4.20;;;;;;;;;;5100046;28;20426;-83
2022/06/03 03:05:44;;;;;;;60.77;4.80;;;;;;;;;;5098186;28;20511;-82
2022/06/03 03:08:30;;;;;;;65.30;4.90;;;;;;;;;;5099256;28;20513;-82
2022/06/03 03:11:07;;;;;;;60.00;4.13;;;;;;;;;;5100326;28;20450;-82
2022/06/03 03:14:04;;;;;;;60.33;4.10;;;;;;;;;;5103779;28;20438;-79
2022/06/03 03:16:37;;;;;;;63.27;4.90;;;;;;;;;;5079934;28;20473;-82
2022/06/03 03:19:26;;;;;;;60.47;4.50;;;;;;;;;;5098780;28;20452;-82
2022/06/03 03:22:03;;;;;;;60.00;4.13;;;;;;;;;;5103283;28;20441;-82
2022/06/03 03:25:04;;;;;;;61.00;4.73;;;;;;;;;;5103574;28;20965;-82
2022/06/03 03:27:42;;;;;;;60.50;4.57;;;;;;;;;;5101897;28;20431;-82
2022/06/03 03:30:15;;;;;;;60.40;4.57;;;;;;;;;;5102048;28;20481;-82
2022/06/03 03:32:52;;;;;;;60.70;4.60;;;;;;;;;;5101712;28;20470;-82
2022/06/03 03:35:28;;;;;;;60.87;5.40;;;;;;;;;;5101859;28;20454;-81
2022/06/03 03:38:14;;;;;;;59.53;3.90;;;;;;;;;;5101732;28;20450;-81
2022/06/03 03:40:56;;;;;;;59.60;4.10;;;;;;;;;;5102084;28;20482;-81
2022/06/03 03:43:42;;;;;;;60.20;4.43;;;;;;;;;;5102173;28;20438;-81
2022/06/03 03:46:30;;;;;;;61.20;4.70;;;;;;;;;;5103191;28;20484;-81
2022/06/03 03:49:25;;;;;;;60.67;4.37;;;;;;;;;;5102616;28;20472;-81
2022/06/03 03:52:05;;;;;;;60.97;5.33;;;;;;;;;;5101410;28;20463;-81
2022/06/03 03:54:46;;;;;;;60.17;4.27;;;;;;;;;;5102634;28;20484;-81
2022/06/03 03:57:38;;;;;;;60.37;4.40;;;;;;;;;;5102609;28;20488;-82
2022/06/03 04:00:10;;;;;;;60.67;4.47;;;;;;;;;;5102176;28;21012;-82
2022/06/03 04:02:45;;;;;;;64.33;4.00;;;;;;;;;;5103266;28;20445;-81
2022/06/03 04:05:27;;;;;;;60.60;4.67;;;;;;;;;;5102637;28;20486;-82
2022/06/03 04:08:18;;;;;;;61.17;4.50;;;;;;;;;;5102727;28;20434;-82
2022/06/03 04:10:58;;;;;;;60.97;4.33;;;;;;;;;;5102795;28;20446;-82
2022/06/03 04:13:56;;;;;;;60.03;4.27;;;;;;;;;;5102700;28;20536;-82
2022/06/03 04:16:45;;;;;;;61.97;4.07;;;;;;;;;;5102737;28;20526;-81
2022/06/03 04:19:29;;;;;;;61.10;4.80;;;;;;;;;;5102385;28;20486;-82
2022/06/03 04:22:07;;;;;;;60.77;4.73;;;;;;;;;;5102184;28;20505;-82
2022/06/03 04:24:42;;;;;;;63.00;5.13;;;;;;;;;;5102113;28;20495;-82
2022/06/03 04:27:28;;;;;;;60.40;4.50;;;;;;;;;;5102335;28;20867;-82
2022/06/03 04:30:13;;;;;;;59.80;3.87;;;;;;;;;;5101021;28;20600;-82
2022/06/03 04:32:55;;;;;;;59.93;4.20;;;;;;;;;;5094821;28;20474;-82
2022/06/03 04:35:46;;;;;;;60.90;4.97;;;;;;;;;;5101422;28;20435;-82
2022/06/03 04:38:46;;;;;;;60.50;4.80;;;;;;;;;;5102449;28;21002;-82
2022/06/03 04:41:32;;;;;;;60.10;4.13;;;;;;;;;;5108974;28;20455;-82
2022/06/03 04:44:18;;;;;;;61.10;4.90;;;;;;;;;;5106701;28;20422;-81
2022/06/03 04:46:55;;;;;;;60.67;4.53;;;;;;;;;;5099806;28;20487;-81
2022/06/03 04:49:43;;;;;;;61.57;4.63;;;;;;;;;;5096196;28;20458;-82
2022/06/03 04:52:29;;;;;;;60.40;4.63;;;;;;;;;;5095087;28;20478;-82
2022/06/03 04:55:12;;;;;;;61.40;4.80;;;;;;;;;;5075089;28;20450;-82
2022/06/03 04:57:57;;;;;;;62.37;4.90;;;;;;;;;;5100637;28;20431;-82
2022/06/03 05:00:36;;;;;;;60.97;4.70;;;;;;;;;;5080048;28;20527;-82
2022/06/03 05:03:26;;;;;;;61.40;4.73;;;;;;;;;;5101824;28;20423;-82
2022/06/03 05:06:12;;;;;;;60.60;4.47;;;;;;;;;;5101727;28;20443;-82
2022/06/03 05:08:57;;;;;;;62.40;5.00;;;;;;;;;;5099170;28;20446;-82
2022/06/03 05:11:42;;;;;;;62.10;5.03;;;;;;;;;;5090318;28;20478;-82
2022/06/03 05:14:28;;;;;;;59.97;3.83;;;;;;;;;;5099062;28;20438;-82
2022/06/03 05:17:05;;;;;;;60.50;5.03;;;;;;;;;;5098072;28;20969;-82
2022/06/03 05:19:57;;;;;;;60.73;4.47;;;;;;;;;;5099122;28;20511;-82
2022/06/03 05:22:30;;;;;;;60.43;4.80;;;;;;;;;;5094249;28;20444;-82
2022/06/03 05:25:15;;;;;;;61.50;4.63;;;;;;;;;;5094263;28;20422;-82
2022/06/03 05:28:01;;;;;;;60.87;4.63;;;;;;;;;;5095875;28;20418;-82
2022/06/03 05:30:35;;;;;;;60.30;4.33;;;;;;;;;;5075200;28;20452;-81
2022/06/03 05:33:17;;;;;;;59.57;4.10;;;;;;;;;;5096341;28;20493;-81
2022/06/03 05:36:06;;;;;;;60.73;4.83;;;;;;;;;;5073197;28;20442;-81
2022/06/03 05:39:05;;;;;;;62.63;5.57;;;;;;;;;;5096808;28;20443;-82
2022/06/03 05:44:50;;;;;;;60.60;4.37;;;;;;;;;;5080228;28;20427;-82
2022/06/03 05:47:20;;;;;;;60.40;4.43;;;;;;;;;;5096352;28;20431;-82
2022/06/03 05:49:52;;;;;;;60.07;3.90;;;;;;;;;;5095896;28;20482;-82
2022/06/03 05:52:41;;;;;;;62.47;5.00;;;;;;;;;;5096440;28;20468;-82
2022/06/03 05:55:23;;;;;;;60.37;4.50;;;;;;;;;;5096174;28;20518;-82
2022/06/03 05:57:58;;;;;;;60.10;4.50;;;;;;;;;;5095504;28;20448;-82
2022/06/03 06:00:39;;;;;;;59.47;3.73;;;;;;;;;;5096339;28;20453;-82
2022/06/03 06:03:15;;;;;;;60.27;4.80;;;;;;;;;;5096285;28;20443;-81
2022/06/03 06:05:49;;;;;;;60.77;4.53;;;;;;;;;;5096950;28;20867;-81
2022/06/03 06:08:24;;;;;;;59.83;3.87;;;;;;;;;;5095449;28;20461;-80
2022/06/03 06:10:57;;;;;;;59.40;3.60;;;;;;;;;;5094804;28;20476;-80
2022/06/03 06:13:32;;;;;;;60.60;4.50;;;;;;;;;;5095345;28;20478;-81
2022/06/03 06:16:06;;;;;;;59.07;3.90;;;;;;;;;;5096805;28;20495;-79
2022/06/03 06:18:40;;;;;;;61.20;5.50;;;;;;;;;;5095844;28;20837;-80
2022/06/03 06:21:14;;;;;;;60.80;4.33;;;;;;;;;;5095445;28;20544;-80
2022/06/03 06:23:45;;;;;;;59.50;3.90;;;;;;;;;;5095668;28;20433;-80
2022/06/03 06:26:28;;;;;;;60.00;4.40;;;;;;;;;;5095488;28;20483;-80
2022/06/03 06:29:06;;;;;;;60.93;4.53;;;;;;;;;;5095534;28;20479;-79
2022/06/03 06:31:42;;;;;;;60.37;4.43;;;;;;;;;;5095796;28;20469;-79
2022/06/03 06:34:17;;;;;;;60.20;4.50;;;;;;;;;;5095408;28;20468;-79
2022/06/03 06:37:12;;;;;;;59.17;4.10;;;;;;;;;;5095133;28;20433;-80
2022/06/03 06:39:50;;;;;;;60.07;4.10;;;;;;;;;;5095038;28;20501;-80
2022/06/03 06:42:23;;;;;;;60.03;3.60;;;;;;;;;;5095481;28;20506;-80
2022/06/03 06:44:54;;;;;;;59.30;4.00;;;;;;;;;;5096152;28;20419;-81
2022/06/03 06:47:24;;;;;;;59.77;4.63;;;;;;;;;;5098414;28;20432;-80
2022/06/03 06:49:54;;;;;;;60.20;4.50;;;;;;;;;;5099996;28;20487;-80
2022/06/03 06:52:32;;;;;;;59.77;4.07;;;;;;;;;;5099924;28;20490;-81
2022/06/03 06:55:07;;;;;;;59.70;3.77;;;;;;;;;;5099527;28;20452;-81
2022/06/03 06:57:37;;;;;;;61.90;5.03;;;;;;;;;;5099544;28;20453;-80
2022/06/03 07:00:07;;;;;;;60.80;4.37;;;;;;;;;;5100695;28;21034;-81
2022/06/03 07:02:37;;;;;;;59.27;4.00;;;;;;;;;;5099766;28;20454;-80
2022/06/03 07:05:07;;;;;;;60.10;3.60;;;;;;;;;;5100684;28;20435;-80
2022/06/03 07:07:37;;;;;;;59.70;3.30;;;;;;;;;;5099465;28;20943;-80
2022/06/03 07:10:07;;;;;;;60.33;4.00;;;;;;;;;;5100480;28;20480;-81
2022/06/03 07:12:39;;;;;;;61.30;4.63;;;;;;;;;;5100263;28;20458;-81
2022/06/03 07:15:08;;;;;;;60.57;4.67;;;;;;;;;;5100995;28;20916;-81
2022/06/03 07:20:27;;;;;;;60.43;4.60;;;;;;;;;;5055878;28;20481;-80
2022/06/03 07:22:56;;;;;;;60.10;4.33;;;;;;;;;;5100778;28;20454;-80
2022/06/03 07:25:28;;;;;;;61.70;5.00;;;;;;;;;;5100029;28;21008;-81
2022/06/03 07:27:59;;;;;;;60.27;4.57;;;;;;;;;;5100295;28;20451;-81
2022/06/03 07:30:32;;;;;;;59.53;4.13;;;;;;;;;;5100977;28;20455;-80
2022/06/03 07:33:02;;;;;;;60.40;4.57;;;;;;;;;;5100626;28;21158;-81
2022/06/03 07:35:37;;;;;;;61.47;3.90;;;;;;;;;;5099954;28;20457;-80
2022/06/03 07:38:06;;;;;;;61.00;4.67;;;;;;;;;;5100389;28;20928;-80
2022/06/03 07:40:38;;;;;;;60.40;4.10;;;;;;;;;;5100471;28;20461;-80
2022/06/03 07:43:08;;;;;;;59.37;3.70;;;;;;;;;;5101063;28;20459;-80
2022/06/03 07:45:41;;;;;;;61.20;4.47;;;;;;;;;;5100513;28;20440;-80
2022/06/03 07:48:11;;;;;;;59.23;3.80;;;;;;;;;;5100555;28;20900;-80
2022/06/03 07:50:42;;;;;;;59.33;4.10;;;;;;;;;;5099840;28;20544;-80
2022/06/03 07:53:13;;;;;;;61.40;3.77;;;;;;;;;;5098394;28;20492;-79
2022/06/03 07:55:45;;;;;;;60.50;4.43;;;;;;;;;;5098386;28;20460;-79
2022/06/03 07:58:17;;;;;;;60.40;3.90;;;;;;;;;;5094461;28;20528;-80
2022/06/03 08:00:45;;;;;;;59.70;4.10;;;;;;;;;;5094390;28;20465;-80
2022/06/03 08:03:15;;;;;;;59.03;3.70;;;;;;;;;;5094707;28;20477;-79
2022/06/03 08:05:46;;;;;;;60.03;4.13;;;;;;;;;;5094968;28;20444;-80
2022/06/03 08:11:04;;;;;;;61.67;4.40;;;;;;;;;;5095813;28;20449;-80
2022/06/03 08:13:48;;;;;;;64.27;3.87;;;;;;;;;;5094896;28;20482;-79
2022/06/03 08:16:18;;;;;;;59.80;3.63;;;;;;;;;;5095511;28;20468;-80
2022/06/03 08:18:46;;;;;;;59.50;3.60;;;;;;;;;;5094651;28;20458;-80
2022/06/03 08:21:15;;;;;;;58.37;3.47;;;;;;;;;;5093491;28;20451;-80
2022/06/03 08:23:43;;;;;;;58.70;3.53;;;;;;;;;;5093622;28;20492;-80
2022/06/03 08:26:15;;;;;;;59.00;3.63;;;;;;;;;;5093782;28;20492;-81
2022/06/03 08:28:46;;;;;;;59.70;3.90;;;;;;;;;;5093809;28;20423;-80
2022/06/03 08:31:14;;;;;;;60.60;3.70;;;;;;;;;;5094109;28;20516;-79
2022/06/03 08:33:42;;;;;;;58.90;3.10;;;;;;;;;;5093845;28;20470;-80
2022/06/03 08:36:12;;;;;;;59.30;3.50;;;;;;;;;;5094066;28;21063;-80
2022/06/03 08:38:41;;;;;;;59.03;3.53;;;;;;;;;;5094287;28;20450;-80
2022/06/03 08:41:14;;;;;;;59.13;3.50;;;;;;;;;;5093943;28;20454;-81
2022/06/03 08:43:50;;;;;;;59.03;3.20;;;;;;;;;;5094369;28;20454;-81
2022/06/03 08:46:22;;;;;;;58.80;3.33;;;;;;;;;;5094744;28;20555;-80
2022/06/03 08:48:51;;;;;;;64.90;3.60;;;;;;;;;;5094532;28;20483;-80
2022/06/03 08:51:23;;;;;;;59.13;3.30;;;;;;;;;;5094942;28;20458;-81
2022/06/03 08:53:52;;;;;;;58.70;3.27;;;;;;;;;;5093912;28;20459;-81
2022/06/03 08:56:21;;;;;;;59.57;3.50;;;;;;;;;;5094265;28;20491;-82
2022/06/03 08:58:54;;;;;;;58.70;3.30;;;;;;;;;;5094396;28;20481;-80
2022/06/03 09:01:28;;;;;;;58.77;3.17;;;;;;;;;;5094357;28;20458;-81
2022/06/03 09:03:59;;;;;;;59.80;3.33;;;;;;;;;;5095997;28;20451;-81
2022/06/03 09:06:33;;;;;;;58.50;3.40;;;;;;;;;;5094505;28;20462;-82
2022/06/03 09:09:02;;;;;;;60.40;3.70;;;;;;;;;;5095586;28;20431;-81
2022/06/03 09:11:32;;;;;;;59.20;3.50;;;;;;;;;;5095401;28;20458;-81
2022/06/03 09:14:04;;;;;;;58.87;3.60;;;;;;;;;;5095658;28;20516;-82
2022/06/03 09:16:32;;;;;;;59.87;3.90;;;;;;;;;;5095928;28;20442;-81
2022/06/03 09:19:00;;;;;;;59.27;3.13;;;;;;;;;;5097402;28;20431;-81
2022/06/03 09:21:29;;;;;;;58.63;3.03;;;;;;;;;;5097433;28;20469;-82
2022/06/03 09:23:59;;;;;;;59.00;3.40;;;;;;;;;;5095640;28;20490;-81
2022/06/03 09:26:28;;;;;;;60.50;3.60;;;;;;;;;;5096899;28;20967;-82
2022/06/03 09:28:57;;;;;;;58.73;3.40;;;;;;;;;;5096627;28;20448;-81
2022/06/03 09:31:26;;;;;;;58.67;3.10;;;;;;;;;;5096915;28;20994;-81
2022/06/03 09:33:54;;;;;;;58.77;3.00;;;;;;;;;;5096335;28;20475;-81
2022/06/03 09:36:23;;;;;;;59.17;2.90;;;;;;;;;;5096968;28;20439;-81
2022/06/03 09:38:52;;;;;;;59.30;3.17;;;;;;;;;;5098408;28;20455;-81
2022/06/03 09:41:23;;;;;;;59.27;3.40;;;;;;;;;;5100664;28;20451;-81
2022/06/03 09:43:53;;;;;;;58.60;2.70;;;;;;;;;;5099738;28;20827;-79
2022/06/03 09:46:22;;;;;;;58.80;2.93;;;;;;;;;;5098937;28;20454;-82
2022/06/03 09:48:51;;;;;;;59.10;3.33;;;;;;;;;;5097116;28;20439;-82
2022/06/03 09:51:20;;;;;;;59.37;3.80;;;;;;;;;;5097492;28;20484;-80
2022/06/03 09:53:48;;;;;;;60.30;3.27;;;;;;;;;;5096963;28;20527;-82
2022/06/03 09:56:19;;;;;;;59.20;3.47;;;;;;;;;;5096943;28;20905;-80
2022/06/03 09:58:47;;;;;;;58.40;2.97;;;;;;;;;;5096712;28;20820;-80
2022/06/03 10:01:14;;;;;;;58.37;2.90;;;;;;;;;;5096157;28;20466;-80
2022/06/03 10:03:43;;;;;;;59.00;3.37;;;;;;;;;;5097759;28;20486;-81
2022/06/03 10:06:42;;;;;;;58.80;2.90;;;;;;;;;;5097375;28;20866;-82
2022/06/03 10:14:29;;;;;;;58.97;3.13;;;;;;;;;;5097614;28;20461;-83
2022/06/03 10:16:56;;;;;;;58.80;2.87;;;;;;;;;;5097494;28;20530;-82
2022/06/03 10:19:24;;;;;;;59.47;2.90;;;;;;;;;;5096033;28;20531;-82
2022/06/03 10:21:54;;;;;;;58.33;2.90;;;;;;;;;;5098094;28;20431;-83
2022/06/03 10:24:23;;;;;;;58.33;2.77;;;;;;;;;;5099896;28;20506;-81
2022/06/03 10:26:51;;;;;;;58.57;3.20;;;;;;;;;;5101799;28;20463;-82
2022/06/03 10:29:20;;;;;;;57.97;2.80;;;;;;;;;;5101112;28;20438;-82
2022/06/03 10:31:53;;;;;;;58.30;3.00;;;;;;;;;;5098159;28;20458;-82
2022/06/03 10:34:22;;;;;;;61.53;2.60;;;;;;;;;;5099232;28;21006;-83
2022/06/03 10:36:50;;;;;;;58.03;2.73;;;;;;;;;;5102473;28;20526;-81
2022/06/03 10:39:19;;;;;;;58.50;2.93;;;;;;;;;;5103517;28;20482;-83
2022/06/03 10:41:49;;;;;;;58.17;2.90;;;;;;;;;;5102268;28;20499;-82
2022/06/03 10:44:17;;;;;;;58.53;3.40;;;;;;;;;;5102679;28;20566;-83
2022/06/03 10:46:53;;;;;;;58.07;2.70;;;;;;;;;;5095811;28;20431;-83
2022/06/03 10:49:22;;;;;;;57.87;3.00;;;;;;;;;;5096787;28;20454;-82
2022/06/03 11:02:54;;;;;;;60.07;3.20;;;;;;;;;;5099612;28;20804;-81
2022/06/03 11:05:24;;;;;;;58.50;3.00;;;;;;;;;;5102301;28;20478;-81
2022/06/03 11:07:58;;;;;;;59.30;3.47;;;;;;;;;;5099170;28;20434;-83
2022/06/03 11:10:29;;;;;;;58.10;2.90;;;;;;;;;;5103854;28;20550;-82
2022/06/03 11:12:59;;;;;;;58.90;3.07;;;;;;;;;;5098390;28;20433;-83
2022/06/03 11:15:31;;;;;;;58.70;3.50;;;;;;;;;;5095104;28;20496;-83
2022/06/03 11:17:59;;;;;;;58.00;3.10;;;;;;;;;;5095411;28;20926;-82
2022/06/03 11:20:34;;;;;;;59.00;3.00;;;;;;;;;;5100011;28;21049;-81
2022/06/03 11:23:02;;;;;;;58.50;2.70;;;;;;;;;;5103707;28;20442;-83
2022/06/03 11:25:32;;;;;;;59.40;2.90;;;;;;;;;;5099789;28;21022;-83
2022/06/03 11:28:02;;;;;;;59.87;3.20;;;;;;;;;;5101135;28;21141;-82
2022/06/03 11:30:34;;;;;;;59.00;2.90;;;;;;;;;;5101934;28;20459;-82
2022/06/03 11:33:04;;;;;;;58.40;2.90;;;;;;;;;;5105008;28;20522;-81
2022/06/03 11:35:33;;;;;;;58.80;2.80;;;;;;;;;;5105533;28;20438;-82
2022/06/03 11:38:03;;;;;;;58.90;3.40;;;;;;;;;;5103018;28;20539;-82
2022/06/03 11:40:34;;;;;;;60.33;3.33;;;;;;;;;;5103513;28;20455;-82
2022/06/03 11:43:04;;;;;;;60.27;3.10;;;;;;;;;;5104435;28;20439;-81
2022/06/03 11:45:36;;;;;;;60.07;3.70;;;;;;;;;;5105240;28;20478;-81
2022/06/03 11:48:05;;;;;;;61.47;3.57;;;;;;;;;;5104601;28;20427;-80
2022/06/03 11:50:33;;;;;;;60.17;3.40;;;;;;;;;;5102632;28;20941;-80
2022/06/03 11:53:00;;;;;;;58.67;3.23;;;;;;;;;;5102067;28;20432;-80
2022/06/03 11:55:29;;;;;;;59.17;3.30;;;;;;;;;;5103455;28;20446;-81
2022/06/03 11:58:02;;;;;;;59.13;3.47;;;;;;;;;;5103761;28;20481;-80
2022/06/03 12:00:32;;;;;;;59.57;3.80;;;;;;;;;;5105033;28;20505;-81
2022/06/03 12:03:05;;;;;;;59.00;3.40;;;;;;;;;;5105889;28;21137;-80
2022/06/03 12:05:34;;;;;;;59.10;3.37;;;;;;;;;;5105106;28;20490;-80
2022/06/03 12:08:05;;;;;;;59.10;3.20;;;;;;;;;;5105204;28;20451;-80
2022/06/03 12:10:42;;;;;;;59.40;3.53;;;;;;;;;;5104748;28;20450;-80
2022/06/03 12:13:17;;;;;;;58.70;3.30;;;;;;;;;;5105694;28;20427;-80
2022/06/03 12:16:05;;;;;;;61.17;3.70;;;;;;;;;;5104727;28;20474;-80
2022/06/03 12:18:50;;;;;;;58.90;3.50;;;;;;;;;;5100447;28;20443;-81
2022/06/03 12:21:47;;;;;;;60.83;3.70;;;;;;;;;;5101347;28;20470;-81
2022/06/03 12:24:43;;;;;;;59.10;3.60;;;;;;;;;;5100632;28;20539;-81
2022/06/03 12:27:15;;;;;;;59.17;3.30;;;;;;;;;;5102009;28;20482;-81
2022/06/03 12:29:47;;;;;;;60.50;4.03;;;;;;;;;;5099582;28;20461;-81
2022/06/03 12:32:17;;;;;;;58.90;3.47;;;;;;;;;;5099389;28;20448;-81
2022/06/03 12:34:44;;;;;;;62.80;3.60;;;;;;;;;;5101194;28;20511;-82
2022/06/03 12:37:25;;;;;;;59.50;3.30;;;;;;;;;;5097308;28;20883;-82
2022/06/03 12:40:00;;;;;;;59.17;3.73;;;;;;;;;;5097716;28;21110;-82
2022/06/03 12:42:38;;;;;;;59.40;3.73;;;;;;;;;;5097933;28;20442;-81
2022/06/03 12:45:32;;;;;;;59.50;4.20;;;;;;;;;;5112223;28;20481;-81
2022/06/03 12:48:01;;;;;;;58.77;3.20;;;;;;;;;;5110115;28;20442;-81
2022/06/03 12:50:36;;;;;;;59.00;3.50;;;;;;;;;;5107366;28;20452;-82
2022/06/03 12:53:21;;;;;;;59.20;3.43;;;;;;;;;;5098523;28;20464;-82
2022/06/03 12:55:53;;;;;;;59.97;3.67;;;;;;;;;;5093304;28;20438;-81
2022/06/03 12:58:29;;;;;;;59.10;3.40;;;;;;;;;;5093017;28;20841;-81
2022/06/03 13:00:59;;;;;;;58.80;3.57;;;;;;;;;;5093107;28;20499;-82
2022/06/03 13:03:44;;;;;;;59.50;3.83;;;;;;;;;;5093656;28;20488;-80
2022/06/03 13:06:11;;;;;;;59.67;3.90;;;;;;;;;;5094162;28;20470;-81
2022/06/03 13:09:34;;;;;;;59.70;3.80;;;;;;;;;;5093852;28;20854;-81
2022/06/03 13:11:34;;;;;;;59.87;4.07;;;;;;;;;;5093888;28;21019;-81
2022/06/03 13:14:08;;;;;;;58.90;3.77;;;;;;;;;;5095463;28;20432;-81
2022/06/03 13:16:44;;;;;;;59.20;3.40;;;;;;;;;;5095180;28;20974;-80
2022/06/03 13:19:30;;;;;;;58.77;3.13;;;;;;;;;;5094872;28;20435;-83
2022/06/03 13:22:07;;;;;;;59.30;3.50;;;;;;;;;;5093603;28;20439;-83
2022/06/03 13:24:35;;;;;;;59.10;4.00;;;;;;;;;;5093148;28;20549;-83
2022/06/03 13:27:07;;;;;;;59.17;3.63;;;;;;;;;;5093751;28;20845;-82
2022/06/03 13:29:55;;;;;;;59.20;3.93;;;;;;;;;;5094742;28;20454;-82
2022/06/03 13:32:23;;;;;;;60.20;3.93;;;;;;;;;;5094129;28;20448;-82
2022/06/03 13:35:05;;;;;;;59.23;3.33;;;;;;;;;;5095316;28;20451;-82
2022/06/03 13:37:45;;;;;;;59.40;3.60;;;;;;;;;;5095760;28;20440;-85
2022/06/03 13:40:20;;;;;;;59.57;3.90;;;;;;;;;;5095794;28;20465;-81
2022/06/03 13:43:00;;;;;;;60.53;3.70;;;;;;;;;;5095849;28;20504;-81
2022/06/03 13:45:46;;;;;;;59.40;3.40;;;;;;;;;;5095728;28;20489;-80
2022/06/03 13:48:17;;;;;;;60.73;4.00;;;;;;;;;;5094160;28;20450;-81
2022/06/03 13:50:45;;;;;;;60.50;3.83;;;;;;;;;;5094539;28;20450;-80
2022/06/03 13:53:15;;;;;;;59.17;3.63;;;;;;;;;;5094932;28;20484;-81
2022/06/03 13:55:51;;;;;;;59.70;3.40;;;;;;;;;;5094513;28;21002;-82
2022/06/03 13:58:20;;;;;;;61.67;3.97;;;;;;;;;;5094920;28;20498;-83
2022/06/03 14:00:54;;;;;;;59.10;3.47;;;;;;;;;;5096577;28;20528;-82
2022/06/03 14:03:24;;;;;;;59.33;3.70;;;;;;;;;;5096727;28;20448;-82
2022/06/03 14:05:58;;;;;;;60.03;3.63;;;;;;;;;;5096678;28;20486;-81
2022/06/03 14:08:29;;;;;;;64.53;3.97;;;;;;;;;;5096281;28;20958;-80
2022/06/03 14:11:00;;;;;;;59.50;3.67;;;;;;;;;;5096329;28;20474;-80
2022/06/03 14:13:33;;;;;;;61.23;3.93;;;;;;;;;;5095176;28;20827;-80
2022/06/03 14:16:02;;;;;;;59.50;3.80;;;;;;;;;;5095083;28;20447;-82
2022/06/03 14:18:46;;;;;;;59.60;3.70;;;;;;;;;;5093621;28;20446;-83
2022/06/03 14:21:15;;;;;;;59.50;4.00;;;;;;;;;;5093951;28;20508;-81
2022/06/03 14:23:46;;;;;;;58.30;3.10;;;;;;;;;;5096101;28;20496;-81
2022/06/03 14:26:15;;;;;;;59.30;3.80;;;;;;;;;;5093470;28;20861;-83
2022/06/03 14:28:48;;;;;;;59.13;3.43;;;;;;;;;;5094370;28;20866;-81
2022/06/03 14:31:22;;;;;;;58.97;3.60;;;;;;;;;;5095486;28;20512;-81
2022/06/03 14:33:52;;;;;;;58.90;3.47;;;;;;;;;;5094140;28;20875;-82
2022/06/03 14:36:20;;;;;;;59.77;3.77;;;;;;;;;;5095319;28;20446;-83
2022/06/03 14:38:50;;;;;;;58.80;3.30;;;;;;;;;;5096156;28;20450;-81
2022/06/03 14:41:21;;;;;;;58.70;3.20;;;;;;;;;;5098376;28;20512;-80
2022/06/03 14:43:48;;;;;;;59.93;3.67;;;;;;;;;;5098292;28;20518;-80
2022/06/03 14:46:18;;;;;;;59.57;3.63;;;;;;;;;;5098833;28;20540;-80
2022/06/03 14:48:49;;;;;;;58.97;3.27;;;;;;;;;;5098967;28;20449;-82
2022/06/03 14:51:23;;;;;;;59.37;3.43;;;;;;;;;;5093679;28;20450;-83
2022/06/03 14:53:55;;;;;;;59.43;3.80;;;;;;;;;;5095326;28;20458;-82
2022/06/03 14:56:31;;;;;;;60.20;3.90;;;;;;;;;;5097463;28;20449;-82
2022/06/03 14:59:01;;;;;;;60.37;4.00;;;;;;;;;;5092477;28;20503;-83
2022/06/03 15:01:40;;;;;;;59.47;3.77;;;;;;;;;;5093376;28;20479;-82
2022/06/03 15:04:09;;;;;;;62.10;4.37;;;;;;;;;;5096452;28;20438;-82
2022/06/03 15:06:39;;;;;;;59.00;3.70;;;;;;;;;;5094665;28;20482;-81
2022/06/03 15:09:11;;;;;;;60.07;3.70;;;;;;;;;;5097091;28;20491;-81
2022/06/03 15:11:41;;;;;;;59.40;3.60;;;;;;;;;;5098341;28;20502;-82
2022/06/03 15:14:09;;;;;;;58.90;3.53;;;;;;;;;;5096153;28;20427;-82
2022/06/03 15:16:51;;;;;;;59.40;3.53;;;;;;;;;;5096552;28;20435;-84
2022/06/03 15:19:33;;;;;;;65.67;3.70;;;;;;;;;;5095146;28;20447;-84
2022/06/03 15:22:01;;;;;;;63.07;3.50;;;;;;;;;;5095785;28;20494;-84
2022/06/03 15:24:30;;;;;;;58.90;3.30;;;;;;;;;;5096911;28;20439;-83
2022/06/03 15:26:58;;;;;;;60.60;3.53;;;;;;;;;;5100016;28;20520;-81
2022/06/03 15:29:30;;;;;;;59.50;3.50;;;;;;;;;;5101580;28;20480;-81
2022/06/03 15:31:58;;;;;;;58.73;3.43;;;;;;;;;;5101733;28;20427;-81
2022/06/03 15:34:26;;;;;;;58.80;3.40;;;;;;;;;;5101227;28;20504;-82
2022/06/03 15:36:54;;;;;;;58.70;3.03;;;;;;;;;;5102731;28;20445;-81
2022/06/03 15:39:25;;;;;;;59.37;3.37;;;;;;;;;;5100136;28;20865;-80
2022/06/03 15:41:54;;;;;;;59.70;3.70;;;;;;;;;;5101274;28;20517;-82
2022/06/03 15:44:29;;;;;;;59.97;4.00;;;;;;;;;;5100919;28;20492;-81
2022/06/03 15:46:57;;;;;;;58.87;3.57;;;;;;;;;;5100557;28;20508;-81
2022/06/03 15:49:26;;;;;;;59.10;3.60;;;;;;;;;;5103825;28;20515;-81